createdAt,value
2022-11-19T00:02:01.952Z,8.40
2022-11-19T00:04:30.055Z,7.30
2022-11-19T00:06:58.389Z,8.67
2022-11-19T00:09:26.573Z,7.80
2022-11-19T00:12:12.943Z,8.40
2022-11-19T00:14:40.849Z,7.67
2022-11-19T00:17:08.738Z,5.70
2022-11-19T00:19:36.614Z,8.37
2022-11-19T00:22:05.674Z,7.43
2022-11-19T00:24:33.527Z,7.27
2022-11-19T00:27:01.478Z,8.13
2022-11-19T00:29:29.340Z,7.27
2022-11-19T00:32:01.221Z,7.83
2022-11-19T00:34:29.111Z,7.03
2022-11-19T00:36:56.972Z,5.53
2022-11-19T00:39:24.852Z,8.43
2022-11-19T00:41:52.675Z,6.80
2022-11-19T00:44:20.569Z,7.80
2022-11-19T00:46:48.457Z,6.40
2022-11-19T00:49:19.542Z,6.17
2022-11-19T00:51:47.662Z,7.18
2022-11-19T00:54:17.077Z,6.83
2022-11-19T00:56:44.942Z,6.83
2022-11-19T00:59:12.836Z,6.63
2022-11-19T01:01:40.658Z,6.33
2022-11-19T01:04:08.530Z,6.23
2022-11-19T01:06:36.529Z,6.67
2022-11-19T01:09:04.617Z,6.23
2022-11-19T01:11:34.194Z,6.07
2022-11-19T01:14:02.922Z,7.83
2022-11-19T01:16:40.559Z,7.33
2022-11-19T01:19:10.201Z,5.90
2022-11-19T01:21:38.404Z,6.93
2022-11-19T01:24:06.929Z,6.30
2022-11-19T01:26:34.924Z,5.83
2022-11-19T01:29:03.173Z,8.13
2022-11-19T01:31:31.116Z,7.13
2022-11-19T01:33:59.960Z,6.83
2022-11-19T01:36:30.273Z,5.90
2022-11-19T01:38:58.764Z,8.03
2022-11-19T01:41:31.599Z,5.83
2022-11-19T01:45:06.571Z,6.60
2022-11-19T01:47:34.610Z,7.27
2022-11-19T01:50:02.811Z,7.50
2022-11-19T01:52:30.788Z,5.10
2022-11-19T01:54:58.767Z,7.27
2022-11-19T01:57:26.619Z,5.57
2022-11-19T01:59:54.763Z,5.93
2022-11-19T02:02:23.762Z,7.67
2022-11-19T02:04:52.481Z,7.27
2022-11-19T02:07:26.250Z,6.40
2022-11-19T02:09:55.040Z,6.40
2022-11-19T02:12:35.854Z,7.33
2022-11-19T02:15:28.365Z,7.43
2022-11-19T02:18:05.107Z,6.30
2022-11-19T02:20:42.265Z,5.10
2022-11-19T02:23:30.603Z,5.83
2022-11-19T02:26:04.165Z,6.07
2022-11-19T02:28:48.014Z,6.83
2022-11-19T02:31:37.942Z,7.07
2022-11-19T02:34:20.947Z,6.47
2022-11-19T02:37:00.045Z,7.00
2022-11-19T02:39:45.988Z,6.43
2022-11-19T02:42:25.232Z,5.53
2022-11-19T02:44:58.846Z,5.30
2022-11-19T02:47:35.546Z,5.77
2022-11-19T02:50:14.510Z,5.97
2022-11-19T02:52:46.895Z,6.23
2022-11-19T02:55:17.845Z,5.97
2022-11-19T02:57:54.706Z,6.60
2022-11-19T03:00:41.614Z,5.27
2022-11-19T03:03:36.824Z,5.07
2022-11-19T03:06:16.578Z,5.27
2022-11-19T03:08:45.331Z,4.87
2022-11-19T03:11:23.129Z,5.27
2022-11-19T03:14:42.304Z,7.23
2022-11-19T03:17:21.739Z,6.40
2022-11-19T03:20:03.826Z,5.23
2022-11-19T03:22:55.293Z,5.83
2022-11-19T03:25:47.458Z,5.32
2022-11-19T03:28:22.249Z,5.00
2022-11-19T03:30:51.045Z,5.73
2022-11-19T03:33:26.826Z,4.97
2022-11-19T03:35:58.337Z,6.10
2022-11-19T03:38:37.204Z,5.93
2022-11-19T03:41:05.766Z,5.83
2022-11-19T03:43:39.312Z,4.97
2022-11-19T03:46:17.147Z,6.93
2022-11-19T03:48:48.263Z,4.30
2022-11-19T03:51:48.720Z,5.28
2022-11-19T03:54:16.717Z,5.50
2022-11-19T03:56:46.085Z,4.57
2022-11-19T03:59:14.027Z,4.63
2022-11-19T04:01:42.024Z,4.83
2022-11-19T04:04:28.329Z,4.67
2022-11-19T04:06:56.206Z,4.47
2022-11-19T04:09:23.998Z,5.87
2022-11-19T04:14:18.613Z,4.60
2022-11-19T04:16:46.738Z,5.40
2022-11-19T04:19:14.647Z,6.27
2022-11-19T04:21:43.743Z,4.40
2022-11-19T04:24:11.709Z,4.77
2022-11-19T04:26:39.551Z,4.57
2022-11-19T04:29:07.360Z,5.40
2022-11-19T04:31:35.243Z,5.90
2022-11-19T04:34:03.242Z,5.90
2022-11-19T04:36:31.166Z,5.27
2022-11-19T04:38:59.062Z,5.73
2022-11-19T04:41:27.126Z,4.53
2022-11-19T04:43:54.948Z,5.13
2022-11-19T04:46:22.887Z,6.13
2022-11-19T04:48:50.862Z,6.57
2022-11-19T04:51:18.988Z,5.43
2022-11-19T04:53:46.844Z,5.17
2022-11-19T04:56:15.018Z,5.10
2022-11-19T04:58:42.880Z,5.90
2022-11-19T05:01:10.792Z,5.87
2022-11-19T05:03:38.682Z,6.43
2022-11-19T05:06:06.827Z,4.53
2022-11-19T05:08:34.750Z,5.30
2022-11-19T05:11:02.602Z,5.40
2022-11-19T05:13:30.461Z,4.37
2022-11-19T05:15:58.355Z,5.50
2022-11-19T05:18:26.196Z,5.83
2022-11-19T05:20:55.143Z,5.30
2022-11-19T05:23:23.023Z,5.77
2022-11-19T05:25:51.053Z,3.97
2022-11-19T05:28:22.113Z,4.50
2022-11-19T05:30:56.679Z,4.90
2022-11-19T05:33:24.633Z,5.13
2022-11-19T05:35:53.301Z,5.23
2022-11-19T05:38:21.114Z,4.27
2022-11-19T05:40:49.008Z,5.13
2022-11-19T05:43:16.882Z,4.87
2022-11-19T05:45:44.725Z,4.57
2022-11-19T05:48:12.525Z,5.20
2022-11-19T05:50:42.718Z,4.17
2022-11-19T05:53:14.690Z,6.13
2022-11-19T05:55:42.598Z,4.30
2022-11-19T05:58:10.505Z,3.73
2022-11-19T06:00:38.356Z,5.20
2022-11-19T06:03:06.265Z,6.17
2022-11-19T06:05:40.584Z,5.23
2022-11-19T06:08:10.723Z,4.70
2022-11-19T06:10:40.593Z,3.80
2022-11-19T06:13:08.513Z,5.20
2022-11-19T06:15:36.440Z,4.17
2022-11-19T06:18:04.551Z,4.40
2022-11-19T06:20:36.431Z,5.90
2022-11-19T06:23:04.284Z,4.00
2022-11-19T06:25:32.239Z,4.10
2022-11-19T06:28:00.076Z,4.70
2022-11-19T06:30:28.031Z,2.90
2022-11-19T06:32:55.877Z,4.43
2022-11-19T06:35:23.728Z,4.07
2022-11-19T06:38:17.168Z,4.63
2022-11-19T06:40:48.317Z,3.33
2022-11-19T06:43:16.178Z,4.72
2022-11-19T06:45:44.028Z,4.37
2022-11-19T06:48:11.886Z,5.27
2022-11-19T06:50:39.760Z,4.13
2022-11-19T06:53:07.617Z,4.83
2022-11-19T06:55:35.440Z,3.83
2022-11-19T06:58:04.233Z,4.80
2022-11-19T07:00:32.545Z,3.93
2022-11-19T07:03:00.403Z,3.20
2022-11-19T07:05:28.435Z,3.97
2022-11-19T07:08:01.570Z,5.13
2022-11-19T07:10:33.286Z,4.80
2022-11-19T07:13:01.616Z,3.83
2022-11-19T07:15:29.469Z,5.07
2022-11-19T07:17:57.365Z,4.47
2022-11-19T07:20:25.262Z,5.17
2022-11-19T07:22:58.762Z,5.60
2022-11-19T07:25:27.750Z,5.87
2022-11-19T07:27:57.564Z,4.20
2022-11-19T07:30:25.446Z,3.57
2022-11-19T07:32:53.958Z,4.43
2022-11-19T07:35:21.959Z,4.87
2022-11-19T07:37:49.749Z,3.87
2022-11-19T07:40:17.598Z,4.67
2022-11-19T07:42:51.483Z,3.93
2022-11-19T07:45:21.917Z,3.73
2022-11-19T07:47:50.048Z,5.87
2022-11-19T07:50:18.444Z,5.93
2022-11-19T07:52:47.628Z,5.37
2022-11-19T07:55:15.857Z,3.07
2022-11-19T07:57:49.862Z,5.13
2022-11-19T08:00:17.923Z,3.07
2022-11-19T08:02:46.099Z,3.60
2022-11-19T08:05:14.076Z,4.87
2022-11-19T08:07:42.028Z,4.70
2022-11-19T08:10:11.393Z,4.23
2022-11-19T08:12:39.372Z,5.60
2022-11-19T08:15:07.921Z,8.23
2022-11-19T08:17:57.403Z,3.97
2022-11-19T08:20:48.702Z,4.33
2022-11-19T08:23:28.934Z,4.60
2022-11-19T08:26:23.541Z,5.37
2022-11-19T08:28:58.521Z,6.33
2022-11-19T08:31:30.933Z,4.30
2022-11-19T08:34:02.652Z,3.30
2022-11-19T08:36:55.902Z,5.10
2022-11-19T08:39:55.600Z,4.40
2022-11-19T08:42:44.049Z,3.73
2022-11-19T08:45:20.621Z,3.93
2022-11-19T08:47:51.019Z,5.37
2022-11-19T08:50:43.904Z,5.00
2022-11-19T08:53:11.953Z,4.47
2022-11-19T08:55:44.509Z,4.63
2022-11-19T08:58:17.681Z,6.57
2022-11-19T09:00:45.819Z,3.87
2022-11-19T09:03:40.925Z,5.77
2022-11-19T09:06:11.120Z,4.67
2022-11-19T09:08:43.727Z,5.60
2022-11-19T09:11:15.914Z,5.33
2022-11-19T09:13:44.228Z,6.03
2022-11-19T09:16:13.418Z,6.93
2022-11-19T09:19:05.750Z,5.90
2022-11-19T09:21:51.098Z,4.40
2022-11-19T09:24:43.809Z,6.90
2022-11-19T09:27:15.651Z,7.60
2022-11-19T09:29:44.699Z,5.10
2022-11-19T09:32:21.141Z,5.57
2022-11-19T09:34:53.088Z,5.97
2022-11-19T09:37:26.557Z,9.53
2022-11-19T09:40:03.053Z,7.53
2022-11-19T09:43:31.795Z,4.57
2022-11-19T09:46:07.478Z,5.53
2022-11-19T09:48:38.385Z,4.70
2022-11-19T09:51:28.913Z,5.03
2022-11-19T09:54:08.246Z,5.33
2022-11-19T09:56:59.094Z,4.73
2022-11-19T09:59:56.877Z,5.97
2022-11-19T10:02:29.060Z,5.47
2022-11-19T10:05:27.537Z,3.63
2022-11-19T10:08:33.045Z,6.73
2022-11-19T10:11:51.349Z,5.70
2022-11-19T10:15:06.762Z,6.80
2022-11-19T10:18:09.559Z,6.23
2022-11-19T10:21:05.431Z,6.63
2022-11-19T10:24:00.823Z,4.70
2022-11-19T10:26:41.011Z,3.83
2022-11-19T10:29:23.287Z,5.03
2022-11-19T10:32:32.578Z,4.67
2022-11-19T10:35:26.222Z,5.37
2022-11-19T10:39:15.123Z,5.20
2022-11-19T10:41:58.082Z,6.23
2022-11-19T10:44:55.459Z,4.70
2022-11-19T10:48:05.938Z,4.90
2022-11-19T10:50:37.793Z,4.93
2022-11-19T10:53:36.128Z,6.00
2022-11-19T10:56:27.856Z,8.37
2022-11-19T10:59:22.815Z,7.70
2022-11-19T11:02:03.853Z,6.73
2022-11-19T11:05:10.832Z,6.30
2022-11-19T11:07:54.305Z,7.67
2022-11-19T11:10:33.820Z,7.30
2022-11-19T11:13:46.906Z,6.87
2022-11-19T11:16:25.620Z,8.80
2022-11-19T11:19:22.602Z,5.47
2022-11-19T11:21:57.877Z,9.43
2022-11-19T11:24:38.268Z,8.80
2022-11-19T11:27:30.943Z,6.85
2022-11-19T11:30:24.165Z,4.55
2022-11-19T11:32:52.136Z,5.45
2022-11-19T11:35:44.842Z,4.78
2022-11-19T11:39:01.497Z,5.53
2022-11-19T11:42:05.360Z,4.80
2022-11-19T11:44:35.237Z,5.20
2022-11-19T11:47:14.737Z,5.57
2022-11-19T11:50:07.700Z,4.47
2022-11-19T11:52:58.190Z,9.70
2022-11-19T11:55:26.333Z,6.05
2022-11-19T11:58:29.942Z,7.05
2022-11-19T12:01:15.991Z,5.63
2022-11-19T12:03:56.968Z,5.50
2022-11-19T12:07:06.462Z,5.90
2022-11-19T12:10:08.911Z,4.28
2022-11-19T12:13:09.077Z,5.55
2022-11-19T12:15:58.477Z,5.03
2022-11-19T12:18:39.500Z,5.03
2022-11-19T12:21:12.073Z,4.95
2022-11-19T12:24:09.012Z,4.40
2022-11-19T12:27:12.014Z,6.88
2022-11-19T12:29:54.103Z,4.65
2022-11-19T12:32:55.490Z,5.05
2022-11-19T12:41:11.193Z,5.00
2022-11-19T12:44:01.986Z,8.68
2022-11-19T12:46:57.747Z,6.85
2022-11-19T12:49:52.419Z,5.15
2022-11-19T12:52:35.621Z,5.03
2022-11-19T12:55:18.442Z,3.75
2022-11-19T12:58:33.145Z,4.85
2022-11-19T13:01:06.683Z,4.20
2022-11-19T13:03:59.411Z,11.63
2022-11-19T13:06:46.363Z,12.85
2022-11-19T13:09:46.084Z,4.60
2022-11-19T13:12:34.129Z,9.65
2022-11-19T13:15:08.373Z,5.50
2022-11-19T13:17:44.704Z,4.60
2022-11-19T13:20:40.345Z,7.28
2022-11-19T13:23:19.171Z,4.18
2022-11-19T13:26:03.727Z,4.30
2022-11-19T13:28:54.944Z,3.80
2022-11-19T13:35:01.591Z,4.40
2022-11-19T13:38:13.439Z,4.10
2022-11-19T13:41:07.603Z,3.28
2022-11-19T13:43:54.083Z,4.22
2022-11-19T13:46:30.572Z,4.35
2022-11-19T13:49:24.688Z,4.15
2022-11-19T13:52:05.321Z,3.42
2022-11-19T13:54:39.958Z,4.10
2022-11-19T13:57:09.666Z,3.42
2022-11-19T13:59:47.679Z,3.42
2022-11-19T14:02:50.963Z,3.92
2022-11-19T14:05:45.873Z,3.33
2022-11-19T14:08:33.517Z,3.65
2022-11-19T14:11:06.663Z,6.72
2022-11-19T14:13:53.226Z,6.35
2022-11-19T14:17:10.742Z,4.40
2022-11-19T14:20:13.483Z,5.32
2022-11-19T14:23:14.283Z,3.47
2022-11-19T14:26:07.518Z,3.78
2022-11-19T14:28:49.420Z,4.88
2022-11-19T14:31:19.946Z,4.35
2022-11-19T14:33:47.739Z,3.80
2022-11-19T14:36:22.249Z,3.55
2022-11-19T14:39:02.732Z,5.38
2022-11-19T14:41:33.938Z,3.55
2022-11-19T14:46:44.648Z,3.38
2022-11-19T14:49:24.026Z,3.53
2022-11-19T14:51:55.085Z,3.05
2022-11-19T14:54:40.081Z,3.28
2022-11-19T14:57:34.073Z,3.97
2022-11-19T15:00:26.132Z,3.55
2022-11-19T15:02:55.465Z,3.28
2022-11-19T15:05:27.838Z,3.13
2022-11-19T15:08:17.117Z,2.95
2022-11-19T15:11:11.503Z,2.60
2022-11-19T15:14:41.918Z,3.33
2022-11-19T15:17:11.153Z,3.05
2022-11-19T15:19:45.093Z,3.00
2022-11-19T15:23:00.489Z,3.60
2022-11-19T15:26:06.790Z,3.35
2022-11-19T15:29:23.478Z,5.75
2022-11-19T15:32:05.672Z,3.33
2022-11-19T15:35:35.149Z,3.97
2022-11-19T15:38:16.882Z,3.92
2022-11-19T15:41:26.504Z,4.32
2022-11-19T15:44:02.321Z,4.60
2022-11-19T15:46:41.097Z,3.87
2022-11-19T15:49:23.427Z,4.23
2022-11-19T15:52:33.267Z,3.15
2022-11-19T15:55:20.581Z,3.00
2022-11-19T15:58:14.175Z,2.60
2022-11-19T16:00:48.154Z,3.07
2022-11-19T16:03:37.978Z,2.57
2022-11-19T16:06:18.751Z,2.53
2022-11-19T16:09:08.649Z,3.83
2022-11-19T16:11:59.591Z,2.93
2022-11-19T16:15:35.004Z,2.20
2022-11-19T16:18:18.564Z,2.93
2022-11-19T16:20:52.465Z,2.30
2022-11-19T16:23:23.085Z,3.07
2022-11-19T16:25:51.373Z,3.63
2022-11-19T16:28:30.663Z,3.13
2022-11-19T16:31:05.085Z,3.37
2022-11-19T16:33:34.128Z,2.47
2022-11-19T16:36:13.732Z,2.80
2022-11-19T16:38:43.782Z,2.93
2022-11-19T16:41:32.371Z,2.37
2022-11-19T16:44:05.400Z,4.30
2022-11-19T16:46:34.556Z,3.70
2022-11-19T16:49:03.970Z,4.53
2022-11-19T16:52:02.883Z,3.67
2022-11-19T16:54:50.330Z,4.93
2022-11-19T16:57:23.854Z,6.43
2022-11-19T17:00:17.967Z,3.30
2022-11-19T17:02:46.250Z,3.40
2022-11-19T17:05:19.311Z,3.60
2022-11-19T17:07:52.830Z,3.87
2022-11-19T17:10:24.508Z,4.20
2022-11-19T17:12:57.967Z,3.37
2022-11-19T17:15:38.578Z,3.93
2022-11-19T17:18:19.910Z,4.53
2022-11-19T17:20:56.938Z,3.22
2022-11-19T17:23:30.797Z,4.07
2022-11-19T17:26:01.918Z,2.67
2022-11-19T17:28:46.426Z,2.80
2022-11-19T17:31:17.167Z,5.40
2022-11-19T17:34:09.635Z,3.85
2022-11-19T17:36:38.954Z,3.67
2022-11-19T17:39:13.461Z,3.07
2022-11-19T17:42:01.467Z,3.73
2022-11-19T17:44:39.113Z,2.70
2022-11-19T17:47:24.207Z,3.40
2022-11-19T17:49:53.265Z,3.90
2022-11-19T17:52:30.920Z,3.13
2022-11-19T17:55:10.466Z,3.50
2022-11-19T17:57:42.594Z,3.87
2022-11-19T18:00:11.418Z,4.33
2022-11-19T18:02:39.248Z,2.47
2022-11-19T18:05:18.901Z,3.60
2022-11-19T18:07:46.985Z,3.87
2022-11-19T18:10:14.976Z,2.97
2022-11-19T18:12:42.800Z,3.07
2022-11-19T18:15:15.723Z,3.03
2022-11-19T18:17:43.664Z,3.50
2022-11-19T18:20:18.757Z,3.97
2022-11-19T18:22:47.710Z,3.57
2022-11-19T18:25:21.886Z,3.67
2022-11-19T18:28:14.524Z,4.47
2022-11-19T18:30:48.540Z,3.47
2022-11-19T18:33:16.399Z,4.83
2022-11-19T18:35:44.242Z,3.07
2022-11-19T18:38:12.195Z,2.87
2022-11-19T18:41:05.660Z,3.10
2022-11-19T18:44:32.734Z,4.03
2022-11-19T18:47:12.483Z,4.50
2022-11-19T18:49:48.696Z,3.30
2022-11-19T18:52:17.371Z,4.07
2022-11-19T18:54:56.568Z,2.67
2022-11-19T18:57:49.314Z,4.07
2022-11-19T19:00:35.938Z,4.40
2022-11-19T19:03:29.260Z,3.90
2022-11-19T19:06:12.362Z,3.50
2022-11-19T19:08:41.999Z,4.07
2022-11-19T19:11:29.570Z,4.83
2022-11-19T19:13:57.693Z,4.10
2022-11-19T19:16:26.064Z,4.07
2022-11-19T19:18:54.042Z,4.63
2022-11-19T19:21:22.872Z,2.90
2022-11-19T19:23:55.957Z,4.07
2022-11-19T19:26:49.205Z,2.50
2022-11-19T19:29:17.130Z,3.70
2022-11-19T19:31:45.042Z,3.40
2022-11-19T19:34:13.101Z,3.57
2022-11-19T19:37:06.481Z,3.17
2022-11-19T19:39:43.664Z,3.20
2022-11-19T19:42:41.087Z,3.13
2022-11-19T19:45:16.259Z,3.33
2022-11-19T19:47:44.292Z,3.47
2022-11-19T19:50:12.439Z,4.23
2022-11-19T19:52:40.341Z,4.27
2022-11-19T19:55:08.690Z,5.10
2022-11-19T19:57:56.328Z,3.57
2022-11-19T20:00:49.545Z,4.30
2022-11-19T20:03:20.030Z,4.20
2022-11-19T20:05:50.916Z,4.23
2022-11-19T20:08:38.207Z,4.00
2022-11-19T20:11:12.451Z,4.33
2022-11-19T20:13:41.132Z,4.20
2022-11-19T20:16:16.200Z,3.97
2022-11-19T20:19:02.532Z,2.77
2022-11-19T20:21:33.952Z,3.70
2022-11-19T20:24:11.848Z,3.40
2022-11-19T20:26:43.895Z,2.93
2022-11-19T20:31:51.690Z,2.50
2022-11-19T20:34:19.609Z,4.63
2022-11-19T20:36:47.549Z,3.60
2022-11-19T20:39:15.506Z,3.53
2022-11-19T20:42:07.030Z,3.60
2022-11-19T20:45:00.251Z,3.15
2022-11-19T20:47:28.476Z,4.33
2022-11-19T20:49:56.718Z,4.13
2022-11-19T20:52:28.642Z,3.80
2022-11-19T20:55:06.877Z,2.63
2022-11-19T20:57:35.018Z,3.27
2022-11-19T21:00:03.550Z,5.13
2022-11-19T21:02:34.849Z,3.43
2022-11-19T21:07:34.551Z,2.05
2022-11-19T21:10:08.015Z,4.20
2022-11-19T21:12:36.485Z,3.57
2022-11-19T21:15:04.736Z,3.80
2022-11-19T21:17:32.594Z,3.77
2022-11-19T21:20:00.435Z,3.87
2022-11-19T21:22:31.727Z,2.83
2022-11-19T21:27:27.666Z,3.53
2022-11-19T21:29:55.742Z,2.07
2022-11-19T21:32:25.643Z,3.67
2022-11-19T21:34:53.530Z,4.03
2022-11-19T21:37:21.378Z,4.77
2022-11-19T21:39:49.283Z,3.43
2022-11-19T21:42:17.152Z,3.40
2022-11-19T21:45:10.283Z,4.07
2022-11-19T21:47:38.304Z,2.80
2022-11-19T21:50:06.713Z,3.13
2022-11-19T21:52:34.584Z,3.37
2022-11-19T21:55:02.445Z,3.23
2022-11-19T21:57:30.351Z,3.70
2022-11-19T21:59:58.155Z,2.93
2022-11-19T22:02:25.995Z,2.73
2022-11-19T22:04:53.836Z,3.30
2022-11-19T22:07:21.780Z,3.80
2022-11-19T22:10:15.760Z,3.50
2022-11-19T22:12:47.111Z,4.03
2022-11-19T22:15:14.979Z,2.33
2022-11-19T22:17:45.933Z,2.90
2022-11-19T22:20:15.115Z,2.50
2022-11-19T22:22:45.117Z,3.03
2022-11-19T22:25:16.051Z,3.80
2022-11-19T22:27:43.882Z,4.25
2022-11-19T22:30:21.481Z,2.97
2022-11-19T22:32:49.427Z,3.03
2022-11-19T22:35:17.338Z,2.77
2022-11-19T22:37:45.185Z,3.03
2022-11-19T22:40:14.124Z,3.27
2022-11-19T22:42:42.971Z,3.20
2022-11-19T22:45:10.991Z,3.97
2022-11-19T22:48:20.948Z,4.20
2022-11-19T22:50:48.937Z,3.60
2022-11-19T22:53:17.195Z,3.73
2022-11-19T22:55:46.079Z,3.17
2022-11-19T22:58:13.917Z,3.97
2022-11-19T23:00:49.543Z,2.73
2022-11-19T23:03:27.788Z,2.70
2022-11-19T23:05:59.687Z,3.27
2022-11-19T23:08:31.173Z,3.23
2022-11-19T23:11:01.117Z,3.43
2022-11-19T23:13:33.329Z,3.83
2022-11-19T23:16:12.525Z,3.03
2022-11-19T23:18:49.160Z,2.37
2022-11-19T23:21:41.804Z,3.03
2022-11-19T23:24:10.569Z,2.53
2022-11-19T23:26:38.551Z,3.47
2022-11-19T23:29:06.769Z,2.87
2022-11-19T23:31:44.014Z,4.63
2022-11-19T23:34:16.595Z,2.47
2022-11-19T23:36:44.386Z,4.37
2022-11-19T23:39:17.117Z,2.30
2022-11-19T23:41:45.489Z,4.00
2022-11-19T23:44:13.526Z,3.37
2022-11-19T23:46:41.553Z,4.13
2022-11-19T23:49:11.903Z,3.53
2022-11-19T23:51:40.159Z,2.67
2022-11-19T23:54:08.282Z,2.73
2022-11-19T23:56:36.545Z,2.43
2022-11-19T23:59:05.730Z,2.90
